createdAt,value
2023-04-23T00:02:13.577Z,34.20
2023-04-23T00:12:20.325Z,32.40
2023-04-23T00:22:27.215Z,37.30
2023-04-23T00:32:33.999Z,33.90
2023-04-23T00:42:41.128Z,36.20
2023-04-23T00:52:47.741Z,35.40
2023-04-23T01:02:55.146Z,38.00
2023-04-23T01:13:01.848Z,36.40
2023-04-23T01:23:08.552Z,37.10
2023-04-23T01:33:15.604Z,38.60
2023-04-23T01:43:22.629Z,39.10
2023-04-23T01:53:29.263Z,38.00
2023-04-23T02:03:36.193Z,37.80
2023-04-23T02:13:42.815Z,37.30
2023-04-23T02:23:49.332Z,36.60
2023-04-23T02:33:55.784Z,38.90
2023-04-23T02:44:02.300Z,38.00
2023-04-23T02:54:08.951Z,39.00
2023-04-23T03:04:15.561Z,38.30
2023-04-23T03:14:22.145Z,39.80
2023-04-23T03:24:28.711Z,42.90
2023-04-23T03:34:35.265Z,45.60
2023-04-23T03:44:41.939Z,49.00
2023-04-23T03:54:48.602Z,48.20
2023-04-23T04:04:56.539Z,52.00
2023-04-23T04:15:04.748Z,51.40
2023-04-23T04:25:10.332Z,49.70
2023-04-23T04:35:16.955Z,48.00
2023-04-23T04:45:23.640Z,46.80
2023-04-23T04:55:30.489Z,43.90
2023-04-23T05:05:37.401Z,41.80
2023-04-23T05:15:44.002Z,39.40
2023-04-23T05:25:51.442Z,38.70
2023-04-23T05:35:59.550Z,36.80
2023-04-23T05:46:08.569Z,38.30
2023-04-23T05:56:15.495Z,34.10
2023-04-23T06:06:22.094Z,32.40
2023-04-23T06:16:28.636Z,32.90
2023-04-23T06:26:35.412Z,30.80
2023-04-23T06:36:42.065Z,35.30
2023-04-23T06:46:48.558Z,34.20
2023-04-23T06:56:55.215Z,28.30
2023-04-23T07:07:01.753Z,29.80
2023-04-23T07:17:08.437Z,24.10
2023-04-23T07:27:14.950Z,25.70
2023-04-23T07:37:23.075Z,22.70
2023-04-23T07:47:29.757Z,21.10
2023-04-23T07:57:36.281Z,17.80
2023-04-23T08:07:42.759Z,17.40
2023-04-23T08:17:49.333Z,15.20
2023-04-23T08:27:55.838Z,12.00
2023-04-23T08:38:03.080Z,12.90
2023-04-23T08:48:11.427Z,11.50
2023-04-23T08:58:18.229Z,9.50
2023-04-23T09:08:24.988Z,10.40
2023-04-23T09:18:32.245Z,8.60
2023-04-23T09:28:39.458Z,13.70
2023-04-23T09:38:52.936Z,9.70
2023-04-23T09:49:05.945Z,12.20
2023-04-23T09:59:46.797Z,9.10
2023-04-23T10:10:03.963Z,9.70
2023-04-23T10:20:18.002Z,9.00
2023-04-23T10:30:31.020Z,13.10
2023-04-23T10:40:45.958Z,8.50
2023-04-23T10:51:35.387Z,10.40
2023-04-23T11:01:40.055Z,9.60
2023-04-23T11:11:53.005Z,10.30
2023-04-23T11:22:14.021Z,10.70
2023-04-23T11:32:27.116Z,12.10
2023-04-23T11:42:47.035Z,14.50
2023-04-23T11:53:01.016Z,10.80
2023-04-23T12:03:14.204Z,11.20
2023-04-23T12:13:30.045Z,10.60
2023-04-23T12:23:44.059Z,7.40
2023-04-23T12:34:06.099Z,12.50
2023-04-23T12:44:26.053Z,10.40
2023-04-23T12:54:41.105Z,10.10
2023-04-23T13:04:54.059Z,13.90
2023-04-23T13:15:07.135Z,8.00
2023-04-23T13:25:20.096Z,9.10
2023-04-23T13:35:33.142Z,9.40
2023-04-23T13:45:53.147Z,10.10
2023-04-23T13:56:07.142Z,6.50
2023-04-23T14:06:20.127Z,10.60
2023-04-23T14:16:33.178Z,12.60
2023-04-23T14:26:49.691Z,8.00
2023-04-23T14:37:03.231Z,12.40
2023-04-23T14:47:18.201Z,7.20
2023-04-23T14:57:31.260Z,9.40
2023-04-23T15:07:44.183Z,10.20
2023-04-23T15:17:57.238Z,12.80
2023-04-23T15:28:10.189Z,12.80
2023-04-23T15:38:26.268Z,12.60
2023-04-23T15:48:39.223Z,11.10
2023-04-23T15:58:52.236Z,11.30
2023-04-23T16:09:05.251Z,8.80
2023-04-23T16:19:18.604Z,11.50
2023-04-23T16:29:31.250Z,15.90
2023-04-23T16:39:44.416Z,10.20
2023-04-23T16:49:57.283Z,11.80
2023-04-23T17:00:13.315Z,13.10
2023-04-23T17:10:27.295Z,11.50
2023-04-23T17:20:43.335Z,16.60
2023-04-23T17:30:59.313Z,8.90
2023-04-23T17:41:12.333Z,13.00
2023-04-23T17:51:26.292Z,11.20
2023-04-23T18:01:39.532Z,13.70
2023-04-23T18:11:52.331Z,11.40
2023-04-23T18:22:12.362Z,14.00
2023-04-23T18:32:34.068Z,12.30
2023-04-23T18:42:47.377Z,14.60
2023-04-23T18:53:00.349Z,19.10
2023-04-23T19:03:24.252Z,16.70
2023-04-23T19:13:39.393Z,21.80
2023-04-23T19:23:52.417Z,19.70
